Time;durP1;ratioP1;P1;durP2;ratioP2;P2;SDS_P1;SDS_P2;PMS_P1;PMS_P2;Temp;Humidity;BMP_temperature;BMP_pressure;BME280_temperature;BME280_humidity;BME280_pressure;Samples;Min_cycle;Max_cycle;Signal;HPM_P1;HPM_P2
2022/04/17 00:01:36;;;;;;;9.47;5.53;;;6.00;99.90;;;;;;5056015;28;20162;-66
2022/04/17 00:04:03;;;;;;;8.93;6.27;;;6.00;99.90;;;;;;5055556;28;20250;-67
2022/04/17 00:06:29;;;;;;;10.07;6.33;;;6.00;99.90;;;;;;5055112;28;20207;-67
2022/04/17 00:08:54;;;;;;;11.57;7.13;;;6.10;99.90;;;;;;5054954;28;20199;-67
2022/04/17 00:11:20;;;;;;;11.27;6.50;;;6.00;99.90;;;;;;5036856;28;20471;-65
2022/04/17 00:13:48;;;;;;;11.87;6.93;;;5.90;99.90;;;;;;5054822;28;20500;-68
2022/04/17 00:16:13;;;;;;;10.17;6.47;;;5.90;99.90;;;;;;5054596;28;20210;-67
2022/04/17 00:18:39;;;;;;;11.23;6.37;;;5.80;99.90;;;;;;5054842;28;20248;-67
2022/04/17 00:21:08;;;;;;;9.67;5.80;;;5.70;99.90;;;;;;5037023;28;20192;-66
2022/04/17 00:23:34;;;;;;;9.53;5.47;;;5.60;99.90;;;;;;5055058;28;20177;-68
2022/04/17 00:26:00;;;;;;;7.80;4.53;;;5.60;99.90;;;;;;5056245;28;20678;-65
2022/04/17 00:28:26;;;;;;;14.07;5.93;;;5.50;99.90;;;;;;5057615;28;20167;-66
2022/04/17 00:30:52;;;;;;;8.77;5.70;;;5.50;99.90;;;;;;5054656;28;20447;-65
2022/04/17 00:33:17;;;;;;;10.87;5.97;;;5.40;99.90;;;;;;5054695;28;20175;-65
2022/04/17 00:35:45;;;;;;;8.10;5.40;;;5.30;99.90;;;;;;5054486;28;20637;-65
2022/04/17 00:38:11;;;;;;;9.03;5.53;;;5.20;99.90;;;;;;5053926;28;20222;-64
2022/04/17 00:40:37;;;;;;;9.50;5.40;;;5.20;99.90;;;;;;5054604;28;20165;-66
2022/04/17 00:43:17;;;;;;;8.20;4.93;;;5.30;99.90;;;;;;5054199;28;20195;-64
2022/04/17 00:45:42;;;;;;;11.13;5.57;;;5.10;99.90;;;;;;5036309;28;20202;-65
2022/04/17 00:48:08;;;;;;;8.70;5.67;;;5.10;99.90;;;;;;5054575;28;20646;-65
2022/04/17 00:50:34;;;;;;;9.93;5.43;;;5.00;99.90;;;;;;5054325;28;20160;-64
2022/04/17 00:53:01;;;;;;;11.13;5.40;;;4.90;99.90;;;;;;5036685;28;20172;-67
2022/04/17 00:55:27;;;;;;;9.27;5.17;;;4.70;99.90;;;;;;5054685;28;20260;-66
2022/04/17 00:57:52;;;;;;;8.63;5.77;;;4.90;99.90;;;;;;5053872;28;20717;-67
2022/04/17 01:00:21;;;;;;;10.57;6.03;;;4.90;99.90;;;;;;5055054;28;20168;-66
2022/04/17 01:02:47;;;;;;;9.80;5.63;;;5.00;99.90;;;;;;5038383;28;20170;-67
2022/04/17 01:05:13;;;;;;;11.17;5.50;;;4.80;99.90;;;;;;5058769;28;20253;-68
2022/04/17 01:07:38;;;;;;;10.93;6.00;;;4.70;99.90;;;;;;5059047;28;20180;-66
2022/04/17 01:10:07;;;;;;;10.60;5.90;;;4.60;99.90;;;;;;5055670;28;20614;-67
2022/04/17 01:12:36;;;;;;;7.03;5.60;;;4.60;99.90;;;;;;5054189;28;20168;-66
2022/04/17 01:15:02;;;;;;;9.47;5.13;;;4.30;99.90;;;;;;5054345;28;20177;-65
2022/04/17 01:17:28;;;;;;;8.97;5.67;;;4.30;99.90;;;;;;5053580;28;20178;-66
2022/04/17 01:19:54;;;;;;;10.10;5.77;;;4.20;99.90;;;;;;5053771;28;20242;-66
2022/04/17 01:22:20;;;;;;;8.57;5.60;;;4.10;99.90;;;;;;5054100;28;20277;-65
2022/04/17 01:27:30;;;;;;;8.70;5.80;;;3.90;99.90;;;;;;5054089;28;20174;-67
2022/04/17 01:29:56;;;;;;;9.57;5.80;;;4.10;99.90;;;;;;5053581;28;20662;-66
2022/04/17 01:32:22;;;;;;;9.67;5.80;;;4.10;99.90;;;;;;5053645;28;20201;-66
2022/04/17 01:34:48;;;;;;;7.67;4.83;;;4.10;99.90;;;;;;5053509;28;20229;-65
2022/04/17 01:37:15;;;;;;;8.77;5.80;;;4.10;99.90;;;;;;5053111;28;20304;-66
2022/04/17 01:39:41;;;;;;;10.70;6.27;;;3.90;99.90;;;;;;5053273;28;20170;-64
2022/04/17 01:42:07;;;;;;;9.30;6.10;;;3.90;99.90;;;;;;5053451;28;20538;-65
2022/04/17 01:44:32;;;;;;;10.57;5.80;;;3.80;99.90;;;;;;5035850;28;20204;-66
2022/04/17 01:46:59;;;;;;;9.30;5.73;;;3.80;99.90;;;;;;5053420;28;20183;-65
2022/04/17 01:49:26;;;;;;;9.83;5.53;;;3.80;99.90;;;;;;5036204;28;20176;-66
2022/04/17 01:51:52;;;;;;;9.97;5.97;;;3.80;99.90;;;;;;5053282;28;20174;-67
2022/04/17 01:54:19;;;;;;;7.77;5.57;;;3.70;99.90;;;;;;5053309;28;20171;-64
2022/04/17 01:56:48;;;;;;;10.20;6.17;;;3.70;99.90;;;;;;5053441;28;20459;-66
2022/04/17 01:59:15;;;;;;;11.17;5.97;;;3.60;99.90;;;;;;5035724;28;20587;-66
2022/04/17 02:01:41;;;;;;;9.77;6.00;;;3.40;99.90;;;;;;5053413;28;20176;-66
2022/04/17 02:04:08;;;;;;;9.40;5.97;;;3.30;99.90;;;;;;5053753;28;20196;-66
2022/04/17 02:06:35;;;;;;;8.43;5.13;;;3.50;99.90;;;;;;5053045;28;20563;-66
2022/04/17 02:09:01;;;;;;;9.60;5.90;;;3.50;99.90;;;;;;5053182;28;20256;-66
2022/04/17 02:11:27;;;;;;;9.17;6.10;;;3.50;99.90;;;;;;5052796;28;20162;-66
2022/04/17 02:13:53;;;;;;;8.10;5.93;;;3.30;99.90;;;;;;5053271;28;20161;-65
2022/04/17 02:16:19;;;;;;;8.10;5.50;;;3.20;99.90;;;;;;5053286;28;20200;-65
2022/04/17 02:18:49;;;;;;;8.03;5.57;;;3.40;99.90;;;;;;5053109;28;20156;-64
2022/04/17 02:21:16;;;;;;;8.90;6.00;;;3.40;99.90;;;;;;5052950;28;20165;-66
2022/04/17 02:23:43;;;;;;;13.77;6.20;;;3.40;99.90;;;;;;5052766;28;20157;-66
2022/04/17 02:26:09;;;;;;;10.83;5.77;;;3.30;99.90;;;;;;5052723;28;20747;-67
2022/04/17 02:28:37;;;;;;;9.63;6.60;;;3.30;99.90;;;;;;5052708;28;20157;-65
2022/04/17 02:31:03;;;;;;;12.53;7.00;;;3.20;99.90;;;;;;5053047;28;20188;-65
2022/04/17 02:33:29;;;;;;;13.00;7.67;;;2.90;99.90;;;;;;5053695;28;20170;-65
2022/04/17 02:35:55;;;;;;;9.97;6.73;;;2.90;99.90;;;;;;5056597;28;20188;-65
2022/04/17 02:38:21;;;;;;;14.90;7.20;;;3.00;99.90;;;;;;5057966;28;20231;-64
2022/04/17 02:40:46;;;;;;;9.97;6.40;;;2.90;99.90;;;;;;5059048;28;20174;-65
2022/04/17 02:43:12;;;;;;;12.53;6.43;;;2.90;99.90;;;;;;5059762;28;20582;-64
2022/04/17 02:45:37;;;;;;;9.30;6.90;;;2.90;99.90;;;;;;5058073;28;20205;-66
2022/04/17 02:48:04;;;;;;;13.93;7.13;;;3.00;99.90;;;;;;5042089;28;20204;-65
2022/04/17 02:50:30;;;;;;;8.37;6.30;;;3.00;99.90;;;;;;5039967;28;20271;-65
2022/04/17 02:52:56;;;;;;;11.17;6.80;;;3.10;99.90;;;;;;5057198;28;20247;-65
2022/04/17 02:55:22;;;;;;;9.97;6.03;;;3.10;99.90;;;;;;5056886;28;20663;-66
2022/04/17 02:57:48;;;;;;;10.73;6.07;;;3.10;99.90;;;;;;5039382;28;20168;-65
2022/04/17 03:00:14;;;;;;;13.33;7.10;;;3.10;99.90;;;;;;5057619;28;20161;-66
2022/04/17 03:05:38;;;;;;;8.83;5.90;;;3.30;99.90;;;;;;5056365;28;20222;-67
2022/04/17 03:08:13;;;;;;;8.67;6.47;;;3.30;99.90;;;;;;5056991;28;20255;-66
2022/04/17 03:10:43;;;;;;;14.67;6.83;;;3.30;99.90;;;;;;5038769;28;20676;-65
2022/04/17 03:13:10;;;;;;;8.83;6.73;;;3.30;99.90;;;;;;5056753;28;20314;-64
2022/04/17 03:15:40;;;;;;;9.47;6.27;;;3.40;99.90;;;;;;5056204;28;20183;-66
2022/04/17 03:18:08;;;;;;;12.67;6.27;;;3.40;99.90;;;;;;5056330;28;20298;-65
2022/04/17 03:20:34;;;;;;;10.07;6.27;;;3.40;99.90;;;;;;5056898;28;20188;-65
2022/04/17 03:23:00;;;;;;;10.10;6.10;;;3.40;99.90;;;;;;5038645;28;20168;-65
2022/04/17 03:25:25;;;;;;;10.50;6.97;;;3.50;99.90;;;;;;5056296;28;20199;-64
2022/04/17 03:27:51;;;;;;;9.80;6.17;;;3.40;99.90;;;;;;5056380;28;20161;-66
2022/04/17 03:30:17;;;;;;;8.73;6.13;;;3.50;99.90;;;;;;5056191;28;20172;-65
2022/04/17 03:32:49;;;;;;;9.60;6.17;;;3.30;99.90;;;;;;5055694;28;20600;-65
2022/04/17 03:35:16;;;;;;;8.17;6.30;;;3.30;99.90;;;;;;5056169;28;20529;-65
2022/04/17 03:37:42;;;;;;;10.53;6.17;;;3.30;99.90;;;;;;5044246;28;20234;-65
2022/04/17 03:40:12;;;;;;;10.83;6.47;;;3.20;99.90;;;;;;5076137;28;20168;-66
2022/04/17 03:42:39;;;;;;;8.10;5.83;;;3.20;99.90;;;;;;5075737;28;20186;-66
2022/04/17 03:45:07;;;;;;;7.87;5.57;;;3.20;99.90;;;;;;5075359;28;20210;-67
2022/04/17 03:47:33;;;;;;;8.87;6.20;;;3.20;99.90;;;;;;5074700;28;20170;-66
2022/04/17 03:49:59;;;;;;;11.30;6.77;;;3.30;99.90;;;;;;5074419;28;20175;-65
2022/04/17 03:52:25;;;;;;;11.33;6.53;;;3.10;99.90;;;;;;5075643;28;20164;-65
2022/04/17 03:54:50;;;;;;;12.93;6.60;;;3.20;99.90;;;;;;5075467;28;20167;-66
2022/04/17 03:57:16;;;;;;;9.30;6.70;;;3.10;99.90;;;;;;5075867;28;20255;-66
2022/04/17 03:59:42;;;;;;;9.83;6.50;;;3.20;99.90;;;;;;5075378;28;20239;-66
2022/04/17 04:02:07;;;;;;;12.13;6.73;;;3.30;99.90;;;;;;5075666;28;20163;-65
2022/04/17 04:04:33;;;;;;;9.07;6.00;;;3.40;99.90;;;;;;5076071;28;20237;-64
2022/04/17 04:06:59;;;;;;;10.83;6.70;;;3.30;99.90;;;;;;5075418;28;20156;-65
2022/04/17 04:09:25;;;;;;;10.43;5.77;;;3.30;99.90;;;;;;5076196;28;20174;-65
2022/04/17 04:11:51;;;;;;;10.40;6.03;;;3.20;99.90;;;;;;5075125;28;20178;-65
2022/04/17 04:14:16;;;;;;;9.03;5.80;;;3.10;99.90;;;;;;5075604;28;20160;-65
2022/04/17 04:16:42;;;;;;;9.73;6.27;;;3.20;99.90;;;;;;5075028;28;20167;-66
2022/04/17 04:19:09;;;;;;;11.17;6.33;;;3.20;99.90;;;;;;5075327;28;20171;-66
2022/04/17 04:21:47;;;;;;;12.23;6.70;;;3.20;99.90;;;;;;5075268;28;20183;-66
2022/04/17 04:24:19;;;;;;;11.97;7.20;;;3.20;99.90;;;;;;5075172;28;20193;-67
2022/04/17 04:28:32;;;;;;;11.37;7.27;;;3.20;99.90;;;;;;5075482;28;20179;-66
2022/04/17 04:29:31;;;;;;;11.03;6.47;;;3.20;99.90;;;;;;5075117;28;20194;-64
2022/04/17 04:31:57;;;;;;;10.60;6.13;;;3.20;99.90;;;;;;5076735;28;20160;-66
2022/04/17 04:34:23;;;;;;;12.50;6.43;;;3.30;99.90;;;;;;5078056;28;20164;-65
2022/04/17 04:36:48;;;;;;;8.70;6.20;;;3.20;99.90;;;;;;5080533;28;20259;-66
2022/04/17 04:39:14;;;;;;;12.27;6.73;;;3.30;99.90;;;;;;5064622;28;20230;-67
2022/04/17 04:41:40;;;;;;;11.00;6.63;;;3.30;99.90;;;;;;5061635;28;20511;-65
2022/04/17 04:44:05;;;;;;;9.47;5.90;;;3.20;99.90;;;;;;5045270;28;20178;-67
2022/04/17 04:46:31;;;;;;;12.67;7.27;;;3.20;99.90;;;;;;5061633;28;20164;-66
2022/04/17 04:51:40;;;;;;;13.47;6.80;;;3.20;99.90;;;;;;5066999;28;20276;-65
2022/04/17 04:54:07;;;;;;;8.73;5.33;;;3.20;99.90;;;;;;5076842;28;20203;-65
2022/04/17 04:56:33;;;;;;;9.63;6.77;;;3.20;99.90;;;;;;5076601;28;20156;-66
2022/04/17 04:58:59;;;;;;;10.30;6.90;;;3.20;99.90;;;;;;5075491;28;20168;-66
2022/04/17 05:01:25;;;;;;;14.27;6.97;;;3.20;99.90;;;;;;5074791;28;20317;-65
2022/04/17 05:03:50;;;;;;;10.20;6.63;;;3.30;99.90;;;;;;5074457;28;20164;-66
2022/04/17 05:06:17;;;;;;;11.47;6.70;;;3.20;99.90;;;;;;5074135;28;20192;-65
2022/04/17 05:08:42;;;;;;;10.03;6.63;;;3.30;99.90;;;;;;5074433;28;20540;-66
2022/04/17 05:11:08;;;;;;;14.37;8.17;;;3.30;99.90;;;;;;5073625;28;20179;-66
2022/04/17 05:13:34;;;;;;;11.47;7.23;;;3.40;99.90;;;;;;5073923;28;20467;-65
2022/04/17 05:16:00;;;;;;;7.30;6.30;;;3.50;99.90;;;;;;5074160;28;20264;-66
2022/04/17 05:18:26;;;;;;;10.60;6.80;;;3.60;99.90;;;;;;5073609;28;20247;-65
2022/04/17 05:20:52;;;;;;;10.47;6.27;;;3.70;99.90;;;;;;5073898;28;20167;-66
2022/04/17 05:23:28;;;;;;;8.67;6.20;;;3.60;99.90;;;;;;5073886;28;20153;-65
2022/04/17 05:25:57;;;;;;;10.57;5.63;;;3.60;99.90;;;;;;5073587;28;20195;-64
2022/04/17 05:28:22;;;;;;;9.77;6.50;;;3.70;99.90;;;;;;5074046;28;20217;-66
2022/04/17 05:30:48;;;;;;;10.60;6.17;;;3.70;99.90;;;;;;5073435;28;20155;-65
2022/04/17 05:33:18;;;;;;;8.30;6.20;;;3.50;99.90;;;;;;5074562;28;20161;-66
2022/04/17 05:35:44;;;;;;;8.70;6.03;;;3.50;99.90;;;;;;5075104;28;20171;-65
2022/04/17 05:38:11;;;;;;;9.93;6.33;;;3.70;99.90;;;;;;5075590;28;20746;-65
2022/04/17 05:40:45;;;;;;;11.73;6.37;;;3.80;99.90;;;;;;5073128;28;20164;-65
2022/04/17 05:43:11;;;;;;;8.80;6.23;;;3.90;99.90;;;;;;5073585;28;20161;-67
2022/04/17 05:45:38;;;;;;;12.33;7.10;;;3.80;99.90;;;;;;5073084;28;20517;-65
2022/04/17 05:48:04;;;;;;;10.97;6.60;;;3.90;99.90;;;;;;5055627;28;20176;-66
2022/04/17 05:50:30;;;;;;;10.33;6.73;;;3.90;99.90;;;;;;5073696;28;20178;-67
2022/04/17 05:52:56;;;;;;;9.43;6.60;;;4.00;99.90;;;;;;5073550;28;20258;-66
2022/04/17 05:55:22;;;;;;;11.50;6.63;;;4.00;99.90;;;;;;5055730;28;20172;-65
2022/04/17 05:57:47;;;;;;;10.27;7.10;;;4.10;99.90;;;;;;5073136;28;20163;-65
2022/04/17 06:00:16;;;;;;;9.80;6.70;;;4.10;99.90;;;;;;5073135;28;20231;-67
2022/04/17 06:02:46;;;;;;;11.03;6.57;;;4.30;99.90;;;;;;5055060;28;20338;-66
2022/04/17 06:05:13;;;;;;;10.27;6.90;;;4.40;99.90;;;;;;5073010;28;20237;-66
2022/04/17 06:07:40;;;;;;;10.83;6.73;;;4.30;99.90;;;;;;5073130;28;20564;-66
2022/04/17 06:10:07;;;;;;;9.67;6.83;;;4.50;99.90;;;;;;5072259;28;20614;-66
2022/04/17 06:12:33;;;;;;;10.20;6.87;;;4.60;99.90;;;;;;5072595;28;20180;-67
2022/04/17 06:14:59;;;;;;;10.67;6.60;;;4.60;99.90;;;;;;5072902;28;20167;-66
2022/04/17 06:17:25;;;;;;;11.53;7.00;;;4.80;99.90;;;;;;5073311;28;20213;-66
2022/04/17 06:19:51;;;;;;;9.60;6.57;;;5.00;99.90;;;;;;5073025;28;20217;-64
2022/04/17 06:22:17;;;;;;;9.77;6.73;;;4.80;99.90;;;;;;5073601;28;20226;-65
2022/04/17 06:24:43;;;;;;;8.67;6.70;;;5.00;99.90;;;;;;5055143;28;20198;-65
2022/04/17 06:27:09;;;;;;;10.20;6.70;;;4.70;99.90;;;;;;5072821;28;20162;-66
2022/04/17 06:29:35;;;;;;;10.00;6.83;;;5.00;99.90;;;;;;5073073;28;20170;-65
2022/04/17 06:32:00;;;;;;;10.93;5.57;;;5.20;99.90;;;;;;5073680;28;20168;-67
2022/04/17 06:34:26;;;;;;;11.00;6.37;;;5.30;99.90;;;;;;5072756;28;20165;-66
2022/04/17 06:36:52;;;;;;;10.30;6.50;;;5.50;99.90;;;;;;5073492;28;20663;-67
2022/04/17 06:39:17;;;;;;;9.63;5.47;;;5.50;99.90;;;;;;5072521;28;20233;-66
2022/04/17 06:41:44;;;;;;;6.47;5.00;;;5.70;99.90;;;;;;5073068;28;20172;-66
2022/04/17 06:44:11;;;;;;;8.53;5.37;;;5.70;99.90;;;;;;5072658;28;20226;-66
2022/04/17 06:46:40;;;;;;;8.77;5.30;;;5.70;99.90;;;;;;5072327;28;20191;-66
2022/04/17 06:49:09;;;;;;;11.63;5.33;;;5.80;99.90;;;;;;5072637;28;20163;-65
2022/04/17 06:51:34;;;;;;;9.70;6.20;;;6.10;99.90;;;;;;5072452;28;20590;-66
2022/04/17 06:54:00;;;;;;;6.00;4.40;;;5.90;99.90;;;;;;5074167;28;20266;-66
2022/04/17 06:56:25;;;;;;;8.73;5.67;;;6.10;99.90;;;;;;5068797;28;20580;-67
2022/04/17 06:58:51;;;;;;;9.07;4.60;;;6.40;99.90;;;;;;5084863;28;20163;-69
2022/04/17 07:01:17;;;;;;;12.33;5.07;;;6.40;99.90;;;;;;5084126;28;20164;-67
2022/04/17 07:03:46;;;;;;;7.13;4.17;;;6.40;99.90;;;;;;5071868;28;20494;-65
2022/04/17 07:06:12;;;;;;;8.73;3.90;;;6.60;99.90;;;;;;5088078;28;20196;-66
2022/04/17 07:08:38;;;;;;;8.80;5.20;;;6.30;99.90;;;;;;5068368;28;20735;-66
2022/04/17 07:11:04;;;;;;;9.60;5.17;;;6.40;99.90;;;;;;5066736;28;20245;-69
2022/04/17 07:13:30;;;;;;;8.93;5.33;;;6.60;99.90;;;;;;5065479;28;20650;-66
2022/04/17 07:15:56;;;;;;;7.40;4.83;;;6.70;99.90;;;;;;5048402;28;20577;-66
2022/04/17 07:18:22;;;;;;;9.30;4.77;;;6.60;99.90;;;;;;5062652;28;20159;-67
2022/04/17 07:20:48;;;;;;;5.13;4.17;;;6.70;99.90;;;;;;5057549;28;20164;-66
2022/04/17 07:23:14;;;;;;;7.30;4.63;;;6.80;99.90;;;;;;5062101;28;20193;-67
2022/04/17 07:25:41;;;;;;;6.63;4.03;;;6.90;99.90;;;;;;5059863;28;20246;-67
2022/04/17 07:28:14;;;;;;;7.43;3.80;;;6.90;99.90;;;;;;5057339;28;20168;-65
2022/04/17 07:30:40;;;;;;;6.50;4.67;;;6.90;99.90;;;;;;5056791;28;20267;-66
2022/04/17 07:33:05;;;;;;;9.23;4.70;;;7.10;99.90;;;;;;5056135;28;20293;-65
2022/04/17 07:35:31;;;;;;;6.57;4.60;;;7.50;99.90;;;;;;5056133;28;20192;-66
2022/04/17 07:37:59;;;;;;;7.47;4.50;;;7.30;99.90;;;;;;5049261;28;20268;-67
2022/04/17 07:40:26;;;;;;;7.70;4.40;;;7.50;99.90;;;;;;5076108;28;20197;-66
2022/04/17 07:42:58;;;;;;;7.57;4.27;;;7.60;99.90;;;;;;5076430;28;20682;-66
2022/04/17 07:45:24;;;;;;;7.33;4.20;;;7.90;99.90;;;;;;5075681;28;20205;-66
2022/04/17 07:47:50;;;;;;;6.73;4.37;;;8.10;99.90;;;;;;5075810;28;20173;-66
2022/04/17 07:50:18;;;;;;;6.80;4.30;;;8.00;99.90;;;;;;5075454;28;20285;-65
2022/04/17 07:52:44;;;;;;;6.93;4.43;;;7.90;99.90;;;;;;5073861;28;20156;-65
2022/04/17 07:55:13;;;;;;;7.17;4.63;;;8.10;99.90;;;;;;5075937;28;20179;-66
2022/04/17 08:00:20;;;;;;;7.83;4.83;;;8.60;99.60;;;;;;5075903;28;20156;-66
2022/04/17 08:03:06;;;;;;;7.20;4.37;;;8.40;99.30;;;;;;5075149;28;20501;-67
2022/04/17 08:05:35;;;;;;;7.33;4.87;;;8.40;99.10;;;;;;5075372;28;20195;-67
2022/04/17 08:08:00;;;;;;;6.43;4.87;;;8.60;98.40;;;;;;5075252;28;20166;-67
2022/04/17 08:10:26;;;;;;;5.63;4.13;;;8.70;97.50;;;;;;5074081;28;20179;-66
2022/04/17 08:12:51;;;;;;;7.83;4.40;;;8.40;98.00;;;;;;5074814;28;20167;-69
2022/04/17 08:15:17;;;;;;;6.00;4.17;;;8.50;98.40;;;;;;5075330;28;20573;-67
2022/04/17 08:17:42;;;;;;;8.47;5.00;;;8.90;97.30;;;;;;5075493;28;20250;-67
2022/04/17 08:20:09;;;;;;;7.27;4.20;;;9.00;95.80;;;;;;5075847;28;20168;-67
2022/04/17 08:22:34;;;;;;;6.67;4.57;;;9.40;95.10;;;;;;5075566;28;20186;-66
2022/04/17 08:25:00;;;;;;;9.37;4.43;;;9.40;94.50;;;;;;5075668;28;20599;-67
2022/04/17 08:27:26;;;;;;;6.83;3.77;;;9.50;93.30;;;;;;5077357;28;20167;-67
2022/04/17 08:29:51;;;;;;;9.07;4.77;;;9.40;94.00;;;;;;5077232;28;20179;-67
2022/04/17 08:32:17;;;;;;;6.13;4.17;;;9.60;92.60;;;;;;5075637;28;20538;-68
2022/04/17 08:34:42;;;;;;;5.90;3.77;;;9.70;92.20;;;;;;5074868;28;20168;-69
2022/04/17 08:37:08;;;;;;;5.87;3.17;;;10.10;90.50;;;;;;5074454;28;20179;-69
2022/04/17 08:39:35;;;;;;;6.60;2.83;;;10.10;84.40;;;;;;5054782;28;20176;-67
2022/04/17 08:42:02;;;;;;;7.17;3.47;;;10.30;81.70;;;;;;5050778;28;20180;-68
2022/04/17 08:44:27;;;;;;;2.57;2.37;;;10.40;81.20;;;;;;5062927;28;20187;-67
2022/04/17 08:46:54;;;;;;;3.47;2.37;;;10.20;78.60;;;;;;5057030;28;20641;-66
2022/04/17 08:49:23;;;;;;;5.43;2.60;;;10.50;77.00;;;;;;5074501;28;20591;-66
2022/04/17 08:51:52;;;;;;;3.53;2.37;;;10.60;74.10;;;;;;5074600;28;20254;-67
2022/04/17 08:54:19;;;;;;;3.90;2.20;;;10.70;73.00;;;;;;5074104;28;20167;-68
2022/04/17 08:56:44;;;;;;;3.67;2.23;;;10.80;72.20;;;;;;5074202;28;20166;-68
2022/04/17 08:59:10;;;;;;;5.07;2.10;;;10.70;72.60;;;;;;5074359;28;20497;-68
2022/04/17 09:01:36;;;;;;;3.70;2.40;;;10.80;71.20;;;;;;5074936;28;20215;-67
2022/04/17 09:04:03;;;;;;;2.87;2.17;;;10.80;72.00;;;;;;5074262;28;20156;-66
2022/04/17 09:06:29;;;;;;;2.40;1.93;;;10.70;72.50;;;;;;5074020;28;20565;-68
2022/04/17 09:09:06;;;;;;;3.13;2.40;;;11.00;72.30;;;;;;5074541;28;20225;-67
2022/04/17 09:11:33;;;;;;;4.87;2.47;;;11.40;70.80;;;;;;5074266;28;20568;-66
2022/04/17 09:14:03;;;;;;;3.30;2.00;;;11.60;68.80;;;;;;5074476;28;20212;-67
2022/04/17 09:16:39;;;;;;;2.13;1.63;;;11.90;65.50;;;;;;5074064;28;20174;-66
2022/04/17 09:19:18;;;;;;;2.10;1.50;;;11.70;63.90;;;;;;5074349;28;20212;-67
2022/04/17 09:21:44;;;;;;;2.30;1.87;;;11.70;64.00;;;;;;5056544;28;20171;-68
2022/04/17 09:24:21;;;;;;;1.60;1.50;;;11.80;63.30;;;;;;5074105;28;20196;-67
2022/04/17 09:26:58;;;;;;;3.87;2.07;;;11.90;63.20;;;;;;5056605;28;20175;-67
2022/04/17 09:29:29;;;;;;;3.80;2.07;;;11.40;63.70;;;;;;5074109;28;20591;-67
2022/04/17 09:31:58;;;;;;;6.73;2.30;;;11.60;64.80;;;;;;5073962;28;20168;-68
2022/04/17 09:34:24;;;;;;;6.27;2.47;;;12.10;65.20;;;;;;5074001;28;20164;-67
2022/04/17 09:36:57;;;;;;;3.40;2.10;;;12.10;63.40;;;;;;5074228;28;20569;-67
2022/04/17 09:39:23;;;;;;;1.93;1.70;;;12.10;63.40;;;;;;5090586;28;20317;-66
2022/04/17 09:42:00;;;;;;;4.00;2.03;;;11.90;64.60;;;;;;5094403;28;20678;-67
2022/04/17 09:44:38;;;;;;;3.40;1.93;;;11.70;63.80;;;;;;5093514;28;20193;-67
2022/04/17 09:47:06;;;;;;;2.67;1.60;;;11.50;64.90;;;;;;5094595;28;20171;-67
2022/04/17 09:49:49;;;;;;;2.23;1.67;;;11.50;65.70;;;;;;5094940;28;20163;-68
2022/04/17 09:52:14;;;;;;;6.10;2.10;;;11.30;66.30;;;;;;5098877;28;20216;-69
2022/04/17 09:54:42;;;;;;;3.60;2.00;;;11.60;66.60;;;;;;5096566;28;20167;-68
2022/04/17 09:57:08;;;;;;;2.53;1.80;;;11.90;66.80;;;;;;5094422;28;20332;-68
2022/04/17 09:59:36;;;;;;;4.43;2.33;;;12.00;65.60;;;;;;5085929;28;20704;-68
2022/04/17 10:02:02;;;;;;;2.87;2.00;;;12.00;65.70;;;;;;5073656;28;20196;-68
2022/04/17 10:04:28;;;;;;;3.63;2.10;;;12.10;65.20;;;;;;5073768;28;20192;-68
2022/04/17 10:06:56;;;;;;;4.93;1.97;;;12.50;64.70;;;;;;5073648;28;20512;-69
2022/04/17 10:09:22;;;;;;;2.50;1.87;;;12.90;62.40;;;;;;5074188;28;20213;-68
2022/04/17 10:11:49;;;;;;;1.90;1.70;;;12.90;60.70;;;;;;5073324;28;20187;-68
2022/04/17 10:14:15;;;;;;;3.63;1.70;;;12.60;58.80;;;;;;5073101;28;20156;-69
2022/04/17 10:16:42;;;;;;;1.67;1.50;;;12.60;59.30;;;;;;5073462;28;20160;-69
2022/04/17 10:19:16;;;;;;;3.10;1.63;;;13.10;59.30;;;;;;5073883;28;20156;-67
2022/04/17 10:21:42;;;;;;;3.17;1.90;;;13.30;59.20;;;;;;5073086;28;20201;-68
2022/04/17 10:24:13;;;;;;;2.50;1.73;;;13.70;60.10;;;;;;5073050;28;20174;-69
2022/04/17 10:26:43;;;;;;;2.27;1.67;;;13.40;59.60;;;;;;5073540;28;20187;-68
2022/04/17 10:29:15;;;;;;;2.20;1.77;;;13.30;59.80;;;;;;5073369;28;20164;-68
2022/04/17 10:32:17;;;;;;;3.70;1.80;;;13.20;59.90;;;;;;5073079;28;20669;-67
2022/04/17 10:35:02;;;;;;;3.30;2.33;;;13.50;59.30;;;;;;5073600;28;20167;-68
2022/04/17 10:37:55;;;;;;;3.00;1.70;;;13.30;58.70;;;;;;5071161;28;20311;-69
2022/04/17 10:40:23;;;;;;;7.67;1.80;;;13.70;58.50;;;;;;5052544;28;20182;-68
2022/04/17 10:42:58;;;;;;;2.10;1.90;;;13.60;56.80;;;;;;5052585;28;20586;-68
2022/04/17 10:45:25;;;;;;;2.03;1.63;;;13.80;57.10;;;;;;5053387;28;20191;-67
2022/04/17 10:48:09;;;;;;;2.93;1.80;;;14.00;58.20;;;;;;5053104;28;20206;-69
2022/04/17 10:50:47;;;;;;;4.60;1.87;;;13.70;58.50;;;;;;5053700;28;20170;-68
2022/04/17 10:53:27;;;;;;;2.67;1.50;;;13.90;58.40;;;;;;5053162;28;20174;-68
2022/04/17 10:56:03;;;;;;;2.03;1.50;;;14.10;57.50;;;;;;5053746;28;20171;-68
2022/04/17 10:58:41;;;;;;;2.00;1.50;;;14.40;57.00;;;;;;5056935;28;20179;-68
2022/04/17 11:01:09;;;;;;;4.43;1.90;;;14.40;56.90;;;;;;5057064;28;20156;-69
2022/04/17 11:03:36;;;;;;;4.43;1.63;;;14.60;56.20;;;;;;5039249;28;20493;-68
2022/04/17 11:06:30;;;;;;;1.90;1.53;;;14.80;55.30;;;;;;5057483;28;20192;-67
2022/04/17 11:09:21;;;;;;;2.17;1.50;;;14.70;55.00;;;;;;5056905;28;20448;-68
2022/04/17 11:11:49;;;;;;;2.30;1.80;;;15.00;55.60;;;;;;5056643;28;20586;-67
2022/04/17 11:14:21;;;;;;;1.67;1.33;;;14.60;54.00;;;;;;5057409;28;20173;-68
2022/04/17 11:16:54;;;;;;;1.90;1.53;;;14.30;54.60;;;;;;5060057;28;20161;-68
2022/04/17 11:19:22;;;;;;;2.77;1.77;;;13.80;54.10;;;;;;5062077;28;20491;-67
2022/04/17 11:21:50;;;;;;;1.57;1.27;;;13.60;53.70;;;;;;5056434;28;20248;-67
2022/04/17 11:24:17;;;;;;;1.97;1.23;;;13.70;54.40;;;;;;5056138;28;20187;-68
2022/04/17 11:26:54;;;;;;;1.77;1.47;;;13.70;54.50;;;;;;5056348;28;20520;-67
2022/04/17 11:29:38;;;;;;;1.80;1.30;;;13.90;53.70;;;;;;5056424;28;20574;-68
2022/04/17 11:32:27;;;;;;;2.43;1.60;;;13.90;54.30;;;;;;5056682;28;20226;-68
2022/04/17 11:34:53;;;;;;;1.27;1.17;;;14.00;54.70;;;;;;5044072;28;20187;-68
2022/04/17 11:37:19;;;;;;;3.50;1.60;;;13.90;55.20;;;;;;5055725;28;20184;-67
2022/04/17 11:39:46;;;;;;;1.50;1.40;;;13.70;55.60;;;;;;5056203;28;20178;-67
2022/04/17 11:42:12;;;;;;;1.50;1.27;;;13.70;55.40;;;;;;5055559;28;20152;-67
2022/04/17 11:44:44;;;;;;;1.53;1.30;;;13.80;54.70;;;;;;5055312;28;20219;-68
2022/04/17 11:47:23;;;;;;;2.43;1.33;;;14.00;54.20;;;;;;5055270;28;20527;-69
2022/04/17 11:49:49;;;;;;;1.83;1.30;;;14.10;53.90;;;;;;5055306;28;20243;-68
2022/04/17 11:52:19;;;;;;;1.40;1.30;;;14.10;54.20;;;;;;5055110;28;20244;-69
2022/04/17 11:54:47;;;;;;;2.27;1.60;;;14.10;54.20;;;;;;5055272;28;20165;-66
2022/04/17 11:57:14;;;;;;;2.07;1.60;;;13.80;54.70;;;;;;5056228;28;20175;-67
2022/04/17 11:59:47;;;;;;;3.03;1.67;;;13.80;55.50;;;;;;5055237;28;20604;-67
2022/04/17 12:02:16;;;;;;;2.60;1.47;;;14.00;55.60;;;;;;5055406;28;20153;-68
2022/04/17 12:04:46;;;;;;;1.90;1.70;;;14.40;55.40;;;;;;5055267;28;20543;-67
2022/04/17 12:07:13;;;;;;;2.67;1.50;;;14.20;55.10;;;;;;5056357;28;20171;-67
2022/04/17 12:09:40;;;;;;;1.57;1.40;;;14.20;55.90;;;;;;5064870;28;20251;-68
2022/04/17 12:12:15;;;;;;;2.33;1.60;;;14.30;55.70;;;;;;5064422;28;20156;-66
2022/04/17 12:14:44;;;;;;;2.63;1.60;;;14.00;55.60;;;;;;5064124;28;20231;-68
2022/04/17 12:17:10;;;;;;;6.33;1.27;;;13.80;55.70;;;;;;5057071;28;20248;-68
2022/04/17 12:19:36;;;;;;;3.47;2.20;;;14.00;56.30;;;;;;5055277;28;20172;-68
2022/04/17 12:22:12;;;;;;;1.53;1.40;;;13.80;56.50;;;;;;5037507;28;20178;-68
2022/04/17 12:24:43;;;;;;;1.90;1.50;;;13.70;56.70;;;;;;5055858;28;20218;-67
2022/04/17 12:27:09;;;;;;;2.50;1.70;;;13.80;57.10;;;;;;5056079;28;20183;-68
2022/04/17 12:29:38;;;;;;;2.70;1.93;;;14.10;57.10;;;;;;5037587;28;20176;-68
2022/04/17 12:32:15;;;;;;;3.90;2.20;;;14.30;56.40;;;;;;5055603;28;20156;-68
2022/04/17 12:34:45;;;;;;;2.50;1.70;;;14.70;55.50;;;;;;5038004;28;20172;-68
2022/04/17 12:37:21;;;;;;;3.57;1.80;;;15.00;55.10;;;;;;5056038;28;20176;-67
2022/04/17 12:39:47;;;;;;;2.97;1.77;;;15.00;54.90;;;;;;5056155;28;20221;-69
2022/04/17 12:42:17;;;;;;;2.67;1.83;;;15.20;54.80;;;;;;5042589;28;20176;-69
2022/04/17 12:44:44;;;;;;;2.03;1.60;;;15.00;54.60;;;;;;5057459;28;20229;-69
2022/04/17 12:47:11;;;;;;;2.40;1.57;;;14.70;55.40;;;;;;5055598;28;20163;-67
2022/04/17 12:49:37;;;;;;;2.60;1.57;;;15.00;55.30;;;;;;5055000;28;20577;-69
2022/04/17 12:52:03;;;;;;;2.13;1.70;;;15.00;54.10;;;;;;5055247;28;20160;-67
2022/04/17 12:54:33;;;;;;;3.40;1.73;;;15.10;54.80;;;;;;5055611;28;20172;-69
2022/04/17 12:57:08;;;;;;;2.23;1.80;;;15.20;54.10;;;;;;5038027;28;20500;-67
2022/04/17 12:59:41;;;;;;;2.47;1.87;;;14.80;54.50;;;;;;5055968;28;20592;-67
2022/04/17 13:02:12;;;;;;;2.33;1.70;;;14.70;54.10;;;;;;5055688;28;20248;-68
2022/04/17 13:04:42;;;;;;;2.23;1.30;;;14.70;54.60;;;;;;5055233;28;20219;-68
2022/04/17 13:07:13;;;;;;;2.53;1.73;;;14.40;54.60;;;;;;5054851;28;20174;-68